Inicio METAR Ruta Wind Satelite

Informe Meteorológico

Fecha: 2020/09/22 23:00:15 Local
2020.09.23 04:00 UTC


Estado: VENCIDO
Operación:
Popayan / Guillermo, Colombia (SKPP) 02-28N 076-36W 1730M
2020.08.14 1400 UTC
Wind: Variable at 2 MPH (2 KT):0
Visibility: 4 mile(s):0
Sky conditions: mostly cloudy
Weather: fog in the vicinity
Temperature: 66 F (19 C)
Dew Point: 60 F (16 C)
Relative Humidity: 82%
Pressure (altimeter): 30.14 in. Hg (1020 hPa)
ob: SKPP 141400Z VRB02KT 8000 VCFG BKN010 BKN040 19/16 A3014
cycle: 14